sensor_id;sensor_type;location;lat;lon;timestamp;P1;durP1;ratioP1;P2;durP2;ratioP2
2866;SDS011;1441;48.886;8.728;2023-08-01T00:00:00;10.13;;;3.47;;
2866;SDS011;1441;48.886;8.728;2023-08-01T00:02:27;5.73;;;3.30;;
2866;SDS011;1441;48.886;8.728;2023-08-01T00:04:53;8.87;;;2.90;;
2866;SDS011;1441;48.886;8.728;2023-08-01T00:07:19;6.13;;;2.97;;
2866;SDS011;1441;48.886;8.728;2023-08-01T00:09:44;5.20;;;3.30;;
2866;SDS011;1441;48.886;8.728;2023-08-01T00:12:10;6.43;;;3.50;;
2866;SDS011;1441;48.886;8.728;2023-08-01T00:14:35;6.70;;;3.83;;
2866;SDS011;1441;48.886;8.728;2023-08-01T00:17:01;4.07;;;3.00;;
2866;SDS011;1441;48.886;8.728;2023-08-01T00:19:28;3.10;;;2.80;;
2866;SDS011;1441;48.886;8.728;2023-08-01T00:21:53;2.80;;;2.60;;
2866;SDS011;1441;48.886;8.728;2023-08-01T00:24:19;4.53;;;3.30;;
2866;SDS011;1441;48.886;8.728;2023-08-01T00:26:44;5.13;;;3.67;;
2866;SDS011;1441;48.886;8.728;2023-08-01T00:29:10;4.50;;;3.50;;
2866;SDS011;1441;48.886;8.728;2023-08-01T00:31:36;3.27;;;2.67;;
2866;SDS011;1441;48.886;8.728;2023-08-01T00:34:01;4.20;;;3.23;;
2866;SDS011;1441;48.886;8.728;2023-08-01T00:36:27;4.27;;;3.63;;
2866;SDS011;1441;48.886;8.728;2023-08-01T00:38:52;4.53;;;2.37;;
2866;SDS011;1441;48.886;8.728;2023-08-01T00:41:18;10.53;;;3.13;;
2866;SDS011;1441;48.886;8.728;2023-08-01T00:43:44;3.80;;;3.17;;
2866;SDS011;1441;48.886;8.728;2023-08-01T00:46:09;4.40;;;2.90;;
2866;SDS011;1441;48.886;8.728;2023-08-01T00:48:35;4.10;;;3.60;;
2866;SDS011;1441;48.886;8.728;2023-08-01T00:51:03;9.13;;;3.17;;
2866;SDS011;1441;48.886;8.728;2023-08-01T00:53:30;5.23;;;3.67;;
2866;SDS011;1441;48.886;8.728;2023-08-01T00:55:56;5.57;;;3.37;;
2866;SDS011;1441;48.886;8.728;2023-08-01T00:58:23;6.30;;;3.50;;
2866;SDS011;1441;48.886;8.728;2023-08-01T01:00:49;6.90;;;3.43;;
2866;SDS011;1441;48.886;8.728;2023-08-01T01:03:15;6.73;;;2.90;;
2866;SDS011;1441;48.886;8.728;2023-08-01T01:05:49;6.00;;;3.10;;
2866;SDS011;1441;48.886;8.728;2023-08-01T01:08:21;6.90;;;3.10;;
2866;SDS011;1441;48.886;8.728;2023-08-01T01:10:47;7.43;;;3.10;;
2866;SDS011;1441;48.886;8.728;2023-08-01T01:13:12;6.53;;;3.00;;
2866;SDS011;1441;48.886;8.728;2023-08-01T01:15:38;6.83;;;4.40;;
2866;SDS011;1441;48.886;8.728;2023-08-01T01:18:03;9.50;;;3.60;;
2866;SDS011;1441;48.886;8.728;2023-08-01T01:20:31;4.73;;;3.40;;
2866;SDS011;1441;48.886;8.728;2023-08-01T01:23:00;5.60;;;3.67;;
2866;SDS011;1441;48.886;8.728;2023-08-01T01:25:28;7.20;;;3.90;;
2866;SDS011;1441;48.886;8.728;2023-08-01T01:27:55;11.27;;;4.70;;
2866;SDS011;1441;48.886;8.728;2023-08-01T01:30:21;6.07;;;3.57;;
2866;SDS011;1441;48.886;8.728;2023-08-01T01:32:47;5.67;;;3.63;;
2866;SDS011;1441;48.886;8.728;2023-08-01T01:35:14;6.50;;;4.17;;
2866;SDS011;1441;48.886;8.728;2023-08-01T01:37:39;3.50;;;2.93;;
2866;SDS011;1441;48.886;8.728;2023-08-01T01:40:05;3.80;;;3.40;;
2866;SDS011;1441;48.886;8.728;2023-08-01T01:42:31;4.20;;;3.00;;
2866;SDS011;1441;48.886;8.728;2023-08-01T01:44:57;7.10;;;3.70;;
2866;SDS011;1441;48.886;8.728;2023-08-01T01:47:22;10.00;;;3.80;;
2866;SDS011;1441;48.886;8.728;2023-08-01T01:49:48;5.43;;;3.70;;
2866;SDS011;1441;48.886;8.728;2023-08-01T01:52:13;8.27;;;3.80;;
2866;SDS011;1441;48.886;8.728;2023-08-01T01:54:39;6.60;;;3.27;;
2866;SDS011;1441;48.886;8.728;2023-08-01T01:57:05;5.50;;;3.80;;
2866;SDS011;1441;48.886;8.728;2023-08-01T01:59:30;7.40;;;4.03;;
2866;SDS011;1441;48.886;8.728;2023-08-01T02:01:56;5.87;;;3.30;;
2866;SDS011;1441;48.886;8.728;2023-08-01T02:04:21;4.87;;;3.20;;
2866;SDS011;1441;48.886;8.728;2023-08-01T02:06:47;5.70;;;3.63;;
2866;SDS011;1441;48.886;8.728;2023-08-01T02:09:13;8.30;;;4.13;;
2866;SDS011;1441;48.886;8.728;2023-08-01T02:11:38;5.70;;;3.63;;
2866;SDS011;1441;48.886;8.728;2023-08-01T02:14:04;8.40;;;3.93;;
2866;SDS011;1441;48.886;8.728;2023-08-01T02:16:30;10.50;;;4.40;;
2866;SDS011;1441;48.886;8.728;2023-08-01T02:18:55;4.70;;;4.00;;
2866;SDS011;1441;48.886;8.728;2023-08-01T02:21:21;4.00;;;3.47;;
2866;SDS011;1441;48.886;8.728;2023-08-01T02:23:47;6.07;;;3.30;;
2866;SDS011;1441;48.886;8.728;2023-08-01T02:26:12;4.13;;;3.73;;
2866;SDS011;1441;48.886;8.728;2023-08-01T02:28:38;3.90;;;3.27;;
2866;SDS011;1441;48.886;8.728;2023-08-01T02:31:03;4.70;;;3.53;;
2866;SDS011;1441;48.886;8.728;2023-08-01T02:33:29;6.80;;;3.67;;
2866;SDS011;1441;48.886;8.728;2023-08-01T02:35:54;3.70;;;3.40;;
2866;SDS011;1441;48.886;8.728;2023-08-01T02:38:20;4.30;;;3.23;;
2866;SDS011;1441;48.886;8.728;2023-08-01T02:40:45;5.87;;;3.43;;
2866;SDS011;1441;48.886;8.728;2023-08-01T02:43:11;6.20;;;3.60;;
2866;SDS011;1441;48.886;8.728;2023-08-01T02:45:37;5.80;;;3.30;;
2866;SDS011;1441;48.886;8.728;2023-08-01T02:48:02;6.80;;;3.70;;
2866;SDS011;1441;48.886;8.728;2023-08-01T02:50:28;5.97;;;3.60;;
2866;SDS011;1441;48.886;8.728;2023-08-01T02:52:53;6.83;;;3.57;;
2866;SDS011;1441;48.886;8.728;2023-08-01T02:55:19;12.70;;;3.50;;
2866;SDS011;1441;48.886;8.728;2023-08-01T02:57:44;4.93;;;3.40;;
2866;SDS011;1441;48.886;8.728;2023-08-01T03:00:10;5.03;;;3.00;;
2866;SDS011;1441;48.886;8.728;2023-08-01T03:02:38;7.97;;;3.30;;
2866;SDS011;1441;48.886;8.728;2023-08-01T03:05:07;5.17;;;3.33;;
2866;SDS011;1441;48.886;8.728;2023-08-01T03:07:33;7.23;;;3.70;;
2866;SDS011;1441;48.886;8.728;2023-08-01T03:09:59;5.27;;;3.37;;
2866;SDS011;1441;48.886;8.728;2023-08-01T03:12:24;6.07;;;3.53;;
2866;SDS011;1441;48.886;8.728;2023-08-01T03:14:50;5.27;;;3.47;;
2866;SDS011;1441;48.886;8.728;2023-08-01T03:17:15;3.60;;;3.20;;
2866;SDS011;1441;48.886;8.728;2023-08-01T03:19:41;4.07;;;3.67;;
2866;SDS011;1441;48.886;8.728;2023-08-01T03:22:07;4.13;;;3.43;;
2866;SDS011;1441;48.886;8.728;2023-08-01T03:24:34;12.10;;;4.73;;
2866;SDS011;1441;48.886;8.728;2023-08-01T03:27:00;7.90;;;2.90;;
2866;SDS011;1441;48.886;8.728;2023-08-01T03:29:25;3.37;;;2.43;;
2866;SDS011;1441;48.886;8.728;2023-08-01T03:31:51;7.60;;;3.10;;
2866;SDS011;1441;48.886;8.728;2023-08-01T03:34:17;5.93;;;3.37;;
2866;SDS011;1441;48.886;8.728;2023-08-01T03:36:43;5.30;;;3.33;;
2866;SDS011;1441;48.886;8.728;2023-08-01T03:39:09;6.33;;;3.10;;
2866;SDS011;1441;48.886;8.728;2023-08-01T03:41:35;3.23;;;2.23;;
2866;SDS011;1441;48.886;8.728;2023-08-01T03:44:01;4.40;;;3.07;;
2866;SDS011;1441;48.886;8.728;2023-08-01T03:46:26;6.00;;;2.80;;
2866;SDS011;1441;48.886;8.728;2023-08-01T03:48:52;2.97;;;2.63;;
2866;SDS011;1441;48.886;8.728;2023-08-01T03:51:17;4.33;;;2.40;;
2866;SDS011;1441;48.886;8.728;2023-08-01T03:53:44;4.70;;;2.50;;
2866;SDS011;1441;48.886;8.728;2023-08-01T03:56:10;3.70;;;2.97;;
2866;SDS011;1441;48.886;8.728;2023-08-01T03:58:36;3.83;;;2.60;;
2866;SDS011;1441;48.886;8.728;2023-08-01T04:01:01;8.30;;;2.70;;
2866;SDS011;1441;48.886;8.728;2023-08-01T04:03:27;3.30;;;3.03;;
2866;SDS011;1441;48.886;8.728;2023-08-01T04:05:53;9.30;;;2.63;;
2866;SDS011;1441;48.886;8.728;2023-08-01T04:08:19;2.73;;;2.33;;
2866;SDS011;1441;48.886;8.728;2023-08-01T04:10:44;2.37;;;2.23;;
2866;SDS011;1441;48.886;8.728;2023-08-01T04:13:10;3.47;;;2.60;;
2866;SDS011;1441;48.886;8.728;2023-08-01T04:15:36;2.93;;;2.10;;
2866;SDS011;1441;48.886;8.728;2023-08-01T04:18:01;6.07;;;3.20;;
2866;SDS011;1441;48.886;8.728;2023-08-01T04:20:27;4.87;;;2.43;;
2866;SDS011;1441;48.886;8.728;2023-08-01T04:22:52;3.90;;;2.20;;
2866;SDS011;1441;48.886;8.728;2023-08-01T04:25:18;9.40;;;2.27;;
2866;SDS011;1441;48.886;8.728;2023-08-01T04:27:43;4.83;;;2.80;;
2866;SDS011;1441;48.886;8.728;2023-08-01T04:30:09;4.03;;;2.57;;
2866;SDS011;1441;48.886;8.728;2023-08-01T04:32:35;2.83;;;2.47;;
2866;SDS011;1441;48.886;8.728;2023-08-01T04:35:00;6.50;;;3.07;;
2866;SDS011;1441;48.886;8.728;2023-08-01T04:37:26;3.57;;;2.40;;
2866;SDS011;1441;48.886;8.728;2023-08-01T04:39:51;5.30;;;2.67;;
2866;SDS011;1441;48.886;8.728;2023-08-01T04:42:17;3.07;;;2.77;;
2866;SDS011;1441;48.886;8.728;2023-08-01T04:44:43;5.80;;;2.70;;
2866;SDS011;1441;48.886;8.728;2023-08-01T04:47:08;4.60;;;2.90;;
2866;SDS011;1441;48.886;8.728;2023-08-01T04:49:34;4.67;;;2.43;;
2866;SDS011;1441;48.886;8.728;2023-08-01T04:51:59;3.70;;;2.47;;
2866;SDS011;1441;48.886;8.728;2023-08-01T04:54:25;5.17;;;2.80;;
2866;SDS011;1441;48.886;8.728;2023-08-01T04:56:51;5.93;;;2.50;;
2866;SDS011;1441;48.886;8.728;2023-08-01T04:59:16;3.50;;;3.10;;
2866;SDS011;1441;48.886;8.728;2023-08-01T05:01:42;6.10;;;2.70;;
2866;SDS011;1441;48.886;8.728;2023-08-01T05:04:07;3.77;;;2.87;;
2866;SDS011;1441;48.886;8.728;2023-08-01T05:06:33;6.50;;;2.70;;
2866;SDS011;1441;48.886;8.728;2023-08-01T05:09:00;5.60;;;2.60;;
2866;SDS011;1441;48.886;8.728;2023-08-01T05:11:29;3.10;;;2.27;;
2866;SDS011;1441;48.886;8.728;2023-08-01T05:13:55;2.27;;;2.10;;
2866;SDS011;1441;48.886;8.728;2023-08-01T05:16:20;5.30;;;2.50;;
2866;SDS011;1441;48.886;8.728;2023-08-01T05:18:46;3.70;;;2.73;;
2866;SDS011;1441;48.886;8.728;2023-08-01T05:21:11;2.97;;;2.67;;
2866;SDS011;1441;48.886;8.728;2023-08-01T05:23:37;2.30;;;1.90;;
2866;SDS011;1441;48.886;8.728;2023-08-01T05:26:03;3.97;;;2.17;;
2866;SDS011;1441;48.886;8.728;2023-08-01T05:28:28;3.33;;;2.97;;
2866;SDS011;1441;48.886;8.728;2023-08-01T05:30:54;6.00;;;3.03;;
2866;SDS011;1441;48.886;8.728;2023-08-01T05:33:20;3.10;;;2.70;;
2866;SDS011;1441;48.886;8.728;2023-08-01T05:35:45;5.30;;;2.60;;
2866;SDS011;1441;48.886;8.728;2023-08-01T05:38:11;2.53;;;2.33;;
2866;SDS011;1441;48.886;8.728;2023-08-01T05:40:36;4.50;;;2.10;;
2866;SDS011;1441;48.886;8.728;2023-08-01T05:43:02;5.40;;;2.10;;
2866;SDS011;1441;48.886;8.728;2023-08-01T05:45:29;3.60;;;2.40;;
2866;SDS011;1441;48.886;8.728;2023-08-01T05:47:55;5.63;;;3.17;;
2866;SDS011;1441;48.886;8.728;2023-08-01T05:50:20;5.77;;;2.97;;
2866;SDS011;1441;48.886;8.728;2023-08-01T05:52:46;3.33;;;2.73;;
2866;SDS011;1441;48.886;8.728;2023-08-01T05:55:11;6.17;;;3.13;;
2866;SDS011;1441;48.886;8.728;2023-08-01T05:57:37;3.03;;;2.83;;
2866;SDS011;1441;48.886;8.728;2023-08-01T06:00:02;7.97;;;3.10;;
2866;SDS011;1441;48.886;8.728;2023-08-01T06:02:28;4.30;;;2.70;;
2866;SDS011;1441;48.886;8.728;2023-08-01T06:04:54;5.07;;;2.77;;
2866;SDS011;1441;48.886;8.728;2023-08-01T06:07:19;9.97;;;3.50;;
2866;SDS011;1441;48.886;8.728;2023-08-01T06:09:48;4.77;;;3.73;;
2866;SDS011;1441;48.886;8.728;2023-08-01T06:12:15;4.83;;;3.77;;
2866;SDS011;1441;48.886;8.728;2023-08-01T06:14:41;6.63;;;3.77;;
2866;SDS011;1441;48.886;8.728;2023-08-01T06:17:07;5.00;;;3.50;;
2866;SDS011;1441;48.886;8.728;2023-08-01T06:19:32;9.07;;;3.90;;
2866;SDS011;1441;48.886;8.728;2023-08-01T06:21:58;6.33;;;3.60;;
2866;SDS011;1441;48.886;8.728;2023-08-01T06:24:25;5.30;;;3.40;;
2866;SDS011;1441;48.886;8.728;2023-08-01T06:26:50;7.03;;;3.63;;
2866;SDS011;1441;48.886;8.728;2023-08-01T06:29:16;4.40;;;3.60;;
2866;SDS011;1441;48.886;8.728;2023-08-01T06:31:41;3.20;;;2.90;;
2866;SDS011;1441;48.886;8.728;2023-08-01T06:34:07;5.47;;;2.90;;
2866;SDS011;1441;48.886;8.728;2023-08-01T06:36:32;5.43;;;3.03;;
2866;SDS011;1441;48.886;8.728;2023-08-01T06:38:58;3.60;;;3.30;;
2866;SDS011;1441;48.886;8.728;2023-08-01T06:41:24;3.77;;;3.40;;
2866;SDS011;1441;48.886;8.728;2023-08-01T06:43:49;3.97;;;3.27;;
2866;SDS011;1441;48.886;8.728;2023-08-01T06:46:15;3.23;;;2.93;;
2866;SDS011;1441;48.886;8.728;2023-08-01T06:48:40;4.20;;;2.40;;
2866;SDS011;1441;48.886;8.728;2023-08-01T06:51:06;5.20;;;3.40;;
2866;SDS011;1441;48.886;8.728;2023-08-01T06:53:31;4.20;;;2.80;;
2866;SDS011;1441;48.886;8.728;2023-08-01T06:55:57;3.10;;;2.70;;
2866;SDS011;1441;48.886;8.728;2023-08-01T06:58:22;5.73;;;3.50;;
2866;SDS011;1441;48.886;8.728;2023-08-01T07:00:48;5.00;;;3.30;;
2866;SDS011;1441;48.886;8.728;2023-08-01T07:03:14;3.80;;;2.90;;
2866;SDS011;1441;48.886;8.728;2023-08-01T07:05:39;3.63;;;2.80;;
2866;SDS011;1441;48.886;8.728;2023-08-01T07:08:05;3.40;;;2.93;;
2866;SDS011;1441;48.886;8.728;2023-08-01T07:10:33;3.43;;;2.67;;
2866;SDS011;1441;48.886;8.728;2023-08-01T07:12:59;4.90;;;3.07;;
2866;SDS011;1441;48.886;8.728;2023-08-01T07:15:28;2.90;;;2.70;;
2866;SDS011;1441;48.886;8.728;2023-08-01T07:17:54;4.13;;;3.17;;
2866;SDS011;1441;48.886;8.728;2023-08-01T07:20:19;7.50;;;2.83;;
2866;SDS011;1441;48.886;8.728;2023-08-01T07:22:45;4.10;;;2.50;;
2866;SDS011;1441;48.886;8.728;2023-08-01T07:25:11;4.37;;;2.60;;
2866;SDS011;1441;48.886;8.728;2023-08-01T07:27:36;4.90;;;2.93;;
2866;SDS011;1441;48.886;8.728;2023-08-01T07:30:03;2.67;;;2.47;;
2866;SDS011;1441;48.886;8.728;2023-08-01T07:32:30;4.57;;;3.13;;
2866;SDS011;1441;48.886;8.728;2023-08-01T07:34:55;4.07;;;2.87;;
2866;SDS011;1441;48.886;8.728;2023-08-01T07:37:21;2.77;;;2.57;;
2866;SDS011;1441;48.886;8.728;2023-08-01T07:39:46;3.13;;;2.40;;
2866;SDS011;1441;48.886;8.728;2023-08-01T07:42:14;4.27;;;2.50;;
2866;SDS011;1441;48.886;8.728;2023-08-01T07:44:39;2.20;;;1.93;;
2866;SDS011;1441;48.886;8.728;2023-08-01T07:47:05;2.90;;;2.33;;
2866;SDS011;1441;48.886;8.728;2023-08-01T07:49:30;6.27;;;2.40;;
2866;SDS011;1441;48.886;8.728;2023-08-01T07:51:56;3.97;;;2.13;;
2866;SDS011;1441;48.886;8.728;2023-08-01T07:54:21;2.60;;;2.10;;
2866;SDS011;1441;48.886;8.728;2023-08-01T07:56:49;3.20;;;1.50;;
2866;SDS011;1441;48.886;8.728;2023-08-01T07:59:14;2.20;;;1.80;;
2866;SDS011;1441;48.886;8.728;2023-08-01T08:01:40;1.60;;;1.37;;
2866;SDS011;1441;48.886;8.728;2023-08-01T08:04:06;2.03;;;1.20;;
2866;SDS011;1441;48.886;8.728;2023-08-01T08:06:32;1.80;;;1.47;;
2866;SDS011;1441;48.886;8.728;2023-08-01T08:08:57;1.47;;;1.37;;
2866;SDS011;1441;48.886;8.728;2023-08-01T08:11:23;1.10;;;1.00;;
2866;SDS011;1441;48.886;8.728;2023-08-01T08:13:48;1.53;;;1.00;;
2866;SDS011;1441;48.886;8.728;2023-08-01T08:16:14;0.97;;;0.70;;
2866;SDS011;1441;48.886;8.728;2023-08-01T08:18:39;0.63;;;0.63;;
2866;SDS011;1441;48.886;8.728;2023-08-01T08:21:05;0.70;;;0.70;;
2866;SDS011;1441;48.886;8.728;2023-08-01T08:23:31;0.80;;;0.80;;
2866;SDS011;1441;48.886;8.728;2023-08-01T08:25:56;0.87;;;0.87;;
2866;SDS011;1441;48.886;8.728;2023-08-01T08:28:29;1.13;;;0.57;;
2866;SDS011;1441;48.886;8.728;2023-08-01T08:30:55;1.70;;;0.43;;
2866;SDS011;1441;48.886;8.728;2023-08-01T08:33:21;1.90;;;0.60;;
2866;SDS011;1441;48.886;8.728;2023-08-01T08:35:47;0.50;;;0.50;;
2866;SDS011;1441;48.886;8.728;2023-08-01T08:38:13;0.47;;;0.47;;
2866;SDS011;1441;48.886;8.728;2023-08-01T08:40:40;2.43;;;0.80;;
2866;SDS011;1441;48.886;8.728;2023-08-01T08:43:09;1.57;;;0.60;;
2866;SDS011;1441;48.886;8.728;2023-08-01T08:45:36;1.00;;;0.50;;
2866;SDS011;1441;48.886;8.728;2023-08-01T08:48:10;1.90;;;0.47;;
2866;SDS011;1441;48.886;8.728;2023-08-01T08:50:40;0.70;;;0.40;;
2866;SDS011;1441;48.886;8.728;2023-08-01T08:53:07;3.90;;;0.40;;
2866;SDS011;1441;48.886;8.728;2023-08-01T08:55:37;0.50;;;0.40;;
2866;SDS011;1441;48.886;8.728;2023-08-01T08:58:06;3.03;;;0.40;;
2866;SDS011;1441;48.886;8.728;2023-08-01T09:00:34;0.40;;;0.40;;
2866;SDS011;1441;48.886;8.728;2023-08-01T09:03:02;0.50;;;0.40;;
2866;SDS011;1441;48.886;8.728;2023-08-01T09:05:29;1.90;;;0.50;;
2866;SDS011;1441;48.886;8.728;2023-08-01T09:07:59;0.70;;;0.40;;
2866;SDS011;1441;48.886;8.728;2023-08-01T09:10:30;1.33;;;0.40;;
2866;SDS011;1441;48.886;8.728;2023-08-01T09:12:56;0.43;;;0.43;;
2866;SDS011;1441;48.886;8.728;2023-08-01T09:15:22;1.17;;;0.50;;
2866;SDS011;1441;48.886;8.728;2023-08-01T09:17:51;0.50;;;0.30;;
2866;SDS011;1441;48.886;8.728;2023-08-01T09:20:17;2.93;;;0.50;;
2866;SDS011;1441;48.886;8.728;2023-08-01T09:22:46;3.53;;;0.50;;
2866;SDS011;1441;48.886;8.728;2023-08-01T09:25:12;0.40;;;0.40;;
2866;SDS011;1441;48.886;8.728;2023-08-01T09:27:38;0.40;;;0.40;;
2866;SDS011;1441;48.886;8.728;2023-08-01T09:30:11;0.50;;;0.50;;
2866;SDS011;1441;48.886;8.728;2023-08-01T09:32:40;0.50;;;0.50;;
2866;SDS011;1441;48.886;8.728;2023-08-01T09:35:19;0.60;;;0.60;;
2866;SDS011;1441;48.886;8.728;2023-08-01T09:37:46;0.50;;;0.50;;
2866;SDS011;1441;48.886;8.728;2023-08-01T09:40:12;0.50;;;0.50;;
2866;SDS011;1441;48.886;8.728;2023-08-01T09:42:45;0.70;;;0.70;;
2866;SDS011;1441;48.886;8.728;2023-08-01T09:45:14;1.87;;;0.63;;
2866;SDS011;1441;48.886;8.728;2023-08-01T09:47:44;0.90;;;0.80;;
2866;SDS011;1441;48.886;8.728;2023-08-01T09:50:11;0.50;;;0.50;;
2866;SDS011;1441;48.886;8.728;2023-08-01T09:52:38;0.80;;;0.70;;
2866;SDS011;1441;48.886;8.728;2023-08-01T09:55:04;0.77;;;0.60;;
2866;SDS011;1441;48.886;8.728;2023-08-01T09:57:30;0.67;;;0.67;;
2866;SDS011;1441;48.886;8.728;2023-08-01T09:59:56;0.70;;;0.60;;
2866;SDS011;1441;48.886;8.728;2023-08-01T10:02:24;2.70;;;0.80;;
2866;SDS011;1441;48.886;8.728;2023-08-01T10:04:54;0.60;;;0.60;;
2866;SDS011;1441;48.886;8.728;2023-08-01T10:07:25;0.70;;;0.70;;
2866;SDS011;1441;48.886;8.728;2023-08-01T10:09:57;1.17;;;0.77;;
2866;SDS011;1441;48.886;8.728;2023-08-01T10:12:24;0.70;;;0.60;;
2866;SDS011;1441;48.886;8.728;2023-08-01T10:14:51;0.60;;;0.60;;
2866;SDS011;1441;48.886;8.728;2023-08-01T10:17:18;0.97;;;0.80;;
2866;SDS011;1441;48.886;8.728;2023-08-01T10:19:44;0.80;;;0.80;;
2866;SDS011;1441;48.886;8.728;2023-08-01T10:22:10;1.97;;;0.70;;
2866;SDS011;1441;48.886;8.728;2023-08-01T10:24:36;5.07;;;0.70;;
2866;SDS011;1441;48.886;8.728;2023-08-01T10:27:13;1.00;;;0.67;;
2866;SDS011;1441;48.886;8.728;2023-08-01T10:29:55;4.80;;;0.67;;
2866;SDS011;1441;48.886;8.728;2023-08-01T10:34:57;0.83;;;0.80;;
2866;SDS011;1441;48.886;8.728;2023-08-01T10:37:23;5.63;;;0.90;;
2866;SDS011;1441;48.886;8.728;2023-08-01T10:39:58;0.73;;;0.73;;
2866;SDS011;1441;48.886;8.728;2023-08-01T10:42:36;3.60;;;1.37;;
2866;SDS011;1441;48.886;8.728;2023-08-01T10:45:03;2.40;;;1.20;;
2866;SDS011;1441;48.886;8.728;2023-08-01T10:47:29;1.37;;;0.80;;
2866;SDS011;1441;48.886;8.728;2023-08-01T10:49:55;1.33;;;1.10;;
2866;SDS011;1441;48.886;8.728;2023-08-01T10:52:22;1.27;;;1.00;;
2866;SDS011;1441;48.886;8.728;2023-08-01T10:55:04;1.10;;;0.80;;
2866;SDS011;1441;48.886;8.728;2023-08-01T10:57:31;1.67;;;0.80;;
2866;SDS011;1441;48.886;8.728;2023-08-01T10:59:59;0.80;;;0.73;;
2866;SDS011;1441;48.886;8.728;2023-08-01T11:02:26;2.60;;;1.07;;
2866;SDS011;1441;48.886;8.728;2023-08-01T11:07:28;1.40;;;0.93;;
2866;SDS011;1441;48.886;8.728;2023-08-01T11:12:33;2.10;;;1.00;;
2866;SDS011;1441;48.886;8.728;2023-08-01T11:15:12;0.90;;;0.90;;
2866;SDS011;1441;48.886;8.728;2023-08-01T11:17:39;2.77;;;1.00;;
2866;SDS011;1441;48.886;8.728;2023-08-01T11:20:07;1.80;;;1.00;;
2866;SDS011;1441;48.886;8.728;2023-08-01T11:22:34;1.30;;;1.20;;
2866;SDS011;1441;48.886;8.728;2023-08-01T11:25:00;2.13;;;1.10;;
2866;SDS011;1441;48.886;8.728;2023-08-01T11:27:27;1.60;;;0.80;;
2866;SDS011;1441;48.886;8.728;2023-08-01T11:29:53;1.47;;;0.90;;
2866;SDS011;1441;48.886;8.728;2023-08-01T11:32:19;1.90;;;0.90;;
2866;SDS011;1441;48.886;8.728;2023-08-01T11:34:45;1.10;;;1.00;;
2866;SDS011;1441;48.886;8.728;2023-08-01T11:37:15;1.77;;;1.33;;
2866;SDS011;1441;48.886;8.728;2023-08-01T11:39:42;4.73;;;1.10;;
2866;SDS011;1441;48.886;8.728;2023-08-01T11:42:13;1.03;;;1.00;;
2866;SDS011;1441;48.886;8.728;2023-08-01T11:44:42;1.80;;;1.30;;
2866;SDS011;1441;48.886;8.728;2023-08-01T11:47:15;1.43;;;0.80;;
2866;SDS011;1441;48.886;8.728;2023-08-01T11:49:45;1.57;;;1.30;;
2866;SDS011;1441;48.886;8.728;2023-08-01T11:52:21;1.20;;;1.10;;
2866;SDS011;1441;48.886;8.728;2023-08-01T11:54:48;1.90;;;0.80;;
2866;SDS011;1441;48.886;8.728;2023-08-01T11:57:13;1.43;;;1.07;;
2866;SDS011;1441;48.886;8.728;2023-08-01T11:59:46;2.80;;;0.90;;
2866;SDS011;1441;48.886;8.728;2023-08-01T12:02:20;1.77;;;0.90;;
2866;SDS011;1441;48.886;8.728;2023-08-01T12:04:47;1.03;;;1.00;;
2866;SDS011;1441;48.886;8.728;2023-08-01T12:07:13;1.23;;;0.80;;
2866;SDS011;1441;48.886;8.728;2023-08-01T12:09:40;1.57;;;0.90;;
2866;SDS011;1441;48.886;8.728;2023-08-01T12:12:05;0.97;;;0.97;;
2866;SDS011;1441;48.886;8.728;2023-08-01T12:14:31;3.03;;;1.10;;
2866;SDS011;1441;48.886;8.728;2023-08-01T12:16:57;1.43;;;1.20;;
2866;SDS011;1441;48.886;8.728;2023-08-01T12:19:22;3.23;;;1.10;;
2866;SDS011;1441;48.886;8.728;2023-08-01T12:21:48;3.13;;;1.37;;
2866;SDS011;1441;48.886;8.728;2023-08-01T12:24:14;2.83;;;1.20;;
2866;SDS011;1441;48.886;8.728;2023-08-01T12:26:40;2.70;;;1.10;;
2866;SDS011;1441;48.886;8.728;2023-08-01T12:29:05;1.73;;;1.20;;
2866;SDS011;1441;48.886;8.728;2023-08-01T12:31:32;2.70;;;1.00;;
2866;SDS011;1441;48.886;8.728;2023-08-01T12:33:58;2.93;;;0.87;;
2866;SDS011;1441;48.886;8.728;2023-08-01T12:36:23;2.07;;;0.93;;
2866;SDS011;1441;48.886;8.728;2023-08-01T12:38:49;1.13;;;1.00;;
2866;SDS011;1441;48.886;8.728;2023-08-01T12:41:15;2.90;;;1.00;;
2866;SDS011;1441;48.886;8.728;2023-08-01T12:43:40;1.67;;;1.13;;
2866;SDS011;1441;48.886;8.728;2023-08-01T12:46:06;2.10;;;0.80;;
2866;SDS011;1441;48.886;8.728;2023-08-01T12:48:32;1.20;;;0.93;;
2866;SDS011;1441;48.886;8.728;2023-08-01T12:50:57;3.60;;;1.00;;
2866;SDS011;1441;48.886;8.728;2023-08-01T12:53:23;1.40;;;0.90;;
2866;SDS011;1441;48.886;8.728;2023-08-01T12:55:49;1.67;;;1.00;;
2866;SDS011;1441;48.886;8.728;2023-08-01T12:58:16;1.83;;;0.93;;
2866;SDS011;1441;48.886;8.728;2023-08-01T13:00:43;2.03;;;0.90;;
2866;SDS011;1441;48.886;8.728;2023-08-01T13:03:09;2.10;;;1.30;;
2866;SDS011;1441;48.886;8.728;2023-08-01T13:05:35;1.43;;;1.00;;
2866;SDS011;1441;48.886;8.728;2023-08-01T13:08:02;3.27;;;1.07;;
2866;SDS011;1441;48.886;8.728;2023-08-01T13:10:31;2.70;;;1.20;;
2866;SDS011;1441;48.886;8.728;2023-08-01T13:12:58;2.17;;;1.10;;
2866;SDS011;1441;48.886;8.728;2023-08-01T13:15:24;3.23;;;1.20;;
2866;SDS011;1441;48.886;8.728;2023-08-01T13:17:50;1.00;;;0.90;;
2866;SDS011;1441;48.886;8.728;2023-08-01T13:20:16;3.70;;;0.80;;
2866;SDS011;1441;48.886;8.728;2023-08-01T13:22:42;3.13;;;1.20;;
2866;SDS011;1441;48.886;8.728;2023-08-01T13:25:09;6.40;;;1.00;;
2866;SDS011;1441;48.886;8.728;2023-08-01T13:27:35;2.13;;;1.10;;
2866;SDS011;1441;48.886;8.728;2023-08-01T13:30:01;2.83;;;1.47;;
2866;SDS011;1441;48.886;8.728;2023-08-01T13:32:27;4.60;;;1.27;;
2866;SDS011;1441;48.886;8.728;2023-08-01T13:34:52;1.90;;;1.30;;
2866;SDS011;1441;48.886;8.728;2023-08-01T13:37:18;1.03;;;0.90;;
2866;SDS011;1441;48.886;8.728;2023-08-01T13:39:43;2.17;;;1.30;;
2866;SDS011;1441;48.886;8.728;2023-08-01T13:42:10;5.13;;;1.23;;
2866;SDS011;1441;48.886;8.728;2023-08-01T13:44:37;2.30;;;1.40;;
2866;SDS011;1441;48.886;8.728;2023-08-01T13:47:02;4.07;;;1.33;;
2866;SDS011;1441;48.886;8.728;2023-08-01T13:49:28;1.53;;;0.87;;
2866;SDS011;1441;48.886;8.728;2023-08-01T13:51:54;3.30;;;1.33;;
2866;SDS011;1441;48.886;8.728;2023-08-01T13:54:20;1.20;;;1.07;;
2866;SDS011;1441;48.886;8.728;2023-08-01T13:56:45;0.90;;;0.90;;
2866;SDS011;1441;48.886;8.728;2023-08-01T13:59:11;2.97;;;1.20;;
2866;SDS011;1441;48.886;8.728;2023-08-01T14:01:36;1.77;;;1.10;;
2866;SDS011;1441;48.886;8.728;2023-08-01T14:04:03;2.90;;;1.10;;
2866;SDS011;1441;48.886;8.728;2023-08-01T14:06:29;3.60;;;1.33;;
2866;SDS011;1441;48.886;8.728;2023-08-01T14:08:55;1.13;;;1.03;;
2866;SDS011;1441;48.886;8.728;2023-08-01T14:11:20;4.97;;;1.10;;
2866;SDS011;1441;48.886;8.728;2023-08-01T14:13:46;2.80;;;1.10;;
2866;SDS011;1441;48.886;8.728;2023-08-01T14:16:12;7.40;;;1.10;;
2866;SDS011;1441;48.886;8.728;2023-08-01T14:18:37;2.60;;;1.00;;
2866;SDS011;1441;48.886;8.728;2023-08-01T14:21:04;1.87;;;0.90;;
2866;SDS011;1441;48.886;8.728;2023-08-01T14:23:30;8.80;;;1.23;;
2866;SDS011;1441;48.886;8.728;2023-08-01T14:25:59;2.00;;;1.30;;
2866;SDS011;1441;48.886;8.728;2023-08-01T14:28:25;3.73;;;1.43;;
2866;SDS011;1441;48.886;8.728;2023-08-01T14:30:51;1.43;;;0.90;;
2866;SDS011;1441;48.886;8.728;2023-08-01T14:33:16;4.73;;;1.30;;
2866;SDS011;1441;48.886;8.728;2023-08-01T14:35:42;3.40;;;0.93;;
2866;SDS011;1441;48.886;8.728;2023-08-01T14:38:08;1.90;;;0.90;;
2866;SDS011;1441;48.886;8.728;2023-08-01T14:40:34;1.47;;;1.10;;
2866;SDS011;1441;48.886;8.728;2023-08-01T14:43:00;1.77;;;1.17;;
2866;SDS011;1441;48.886;8.728;2023-08-01T14:45:27;3.80;;;0.83;;
2866;SDS011;1441;48.886;8.728;2023-08-01T14:47:52;0.90;;;0.73;;
2866;SDS011;1441;48.886;8.728;2023-08-01T14:50:18;1.97;;;1.07;;
2866;SDS011;1441;48.886;8.728;2023-08-01T14:52:44;3.90;;;1.17;;
2866;SDS011;1441;48.886;8.728;2023-08-01T14:55:09;2.77;;;1.20;;
2866;SDS011;1441;48.886;8.728;2023-08-01T14:57:35;5.20;;;1.30;;
2866;SDS011;1441;48.886;8.728;2023-08-01T15:00:01;2.10;;;1.23;;
2866;SDS011;1441;48.886;8.728;2023-08-01T15:02:27;2.20;;;1.50;;
2866;SDS011;1441;48.886;8.728;2023-08-01T15:04:53;2.20;;;0.90;;
2866;SDS011;1441;48.886;8.728;2023-08-01T15:07:25;0.93;;;0.93;;
2866;SDS011;1441;48.886;8.728;2023-08-01T15:09:51;3.60;;;1.30;;
2866;SDS011;1441;48.886;8.728;2023-08-01T15:12:17;7.23;;;1.00;;
2866;SDS011;1441;48.886;8.728;2023-08-01T15:14:52;2.70;;;1.20;;
2866;SDS011;1441;48.886;8.728;2023-08-01T15:17:18;1.17;;;0.87;;